createdAt,value
2022-11-19T00:04:13.372Z,24.1
2022-11-19T00:09:52.025Z,24.2
2022-11-19T00:15:34.855Z,24.1
2022-11-19T00:20:41.992Z,23.9
2022-11-19T00:26:20.056Z,23.7
2022-11-19T00:32:12.740Z,23.4
2022-11-19T00:37:34.695Z,23.1
2022-11-19T00:42:58.043Z,22.9
2022-11-19T00:48:36.291Z,22.6
2022-11-19T00:54:13.851Z,22.3
2022-11-19T00:59:36.562Z,22.6
2022-11-19T01:05:14.585Z,25.4
2022-11-19T01:10:37.205Z,24.4
2022-11-19T01:16:14.725Z,24.1
2022-11-19T01:21:52.674Z,24.2
2022-11-19T01:27:19.727Z,24.1
2022-11-19T01:32:41.830Z,23.9
2022-11-19T01:38:19.084Z,23.6
2022-11-19T01:43:57.360Z,23.4
2022-11-19T01:49:19.290Z,23.1
2022-11-19T01:54:57.138Z,22.8
2022-11-19T02:00:34.824Z,22.5
2022-11-19T02:06:13.242Z,22.3
2022-11-19T02:11:35.824Z,22.4
2022-11-19T02:17:13.263Z,25.2
2022-11-19T02:22:50.659Z,24.4
2022-11-19T02:28:33.074Z,24
2022-11-19T02:33:53.901Z,24.1
2022-11-19T02:39:31.835Z,24.1
2022-11-19T02:44:54.423Z,23.9
2022-11-19T02:50:16.643Z,23.6
2022-11-19T02:55:53.987Z,23.4
2022-11-19T03:01:16.969Z,23.1
2022-11-19T03:06:39.679Z,22.8
2022-11-19T03:12:16.929Z,22.6
2022-11-19T03:17:54.376Z,22.3
2022-11-19T03:23:00.812Z,22.7
2022-11-19T03:28:22.675Z,25.3
2022-11-19T03:34:00.135Z,24.5
2022-11-19T03:39:38.432Z,24
2022-11-19T03:45:15.879Z,24.2
2022-11-19T03:50:53.330Z,24.1
2022-11-19T03:56:32.627Z,23.9
2022-11-19T04:02:16.195Z,23.6
2022-11-19T04:07:54.122Z,23.4
2022-11-19T04:13:30.853Z,23.1
2022-11-19T04:18:53.497Z,22.8
2022-11-19T04:24:15.724Z,22.4
2022-11-19T04:29:38.143Z,22.3
2022-11-19T04:34:44.582Z,22.8
2022-11-19T04:40:22.122Z,25.5
2022-11-19T04:45:44.237Z,24.4
2022-11-19T04:51:06.625Z,24
2022-11-19T04:56:50.150Z,24.2
2022-11-19T05:02:29.973Z,24.1
2022-11-19T05:07:36.269Z,23.9
2022-11-19T05:13:15.085Z,23.7
2022-11-19T05:18:56.492Z,25.9
2022-11-19T05:24:34.603Z,25.1
2022-11-19T05:30:19.920Z,24.3
2022-11-19T05:36:02.397Z,24.5
2022-11-19T05:41:40.520Z,24.4
2022-11-19T05:47:18.048Z,24.3
2022-11-19T05:52:56.371Z,23.9
2022-11-19T05:58:34.699Z,24
2022-11-19T06:04:12.906Z,26.6
2022-11-19T06:09:50.395Z,24.6
2022-11-19T06:15:32.705Z,24.4
2022-11-19T06:21:12.234Z,24.6
2022-11-19T06:26:34.956Z,24.4
2022-11-19T06:32:13.198Z,24.2
2022-11-19T06:37:57.721Z,23.9
2022-11-19T06:43:41.018Z,24.1
2022-11-19T06:49:20.447Z,26.8
2022-11-19T06:54:59.908Z,24.6
2022-11-19T07:00:37.936Z,24.4
2022-11-19T07:06:16.219Z,24.6
2022-11-19T07:11:56.374Z,24.4
2022-11-19T07:17:19.868Z,24.2
2022-11-19T07:22:59.449Z,23.9
2022-11-19T07:28:38.142Z,23.6
2022-11-19T07:34:15.795Z,23.3
2022-11-19T07:40:01.211Z,22.9
2022-11-19T07:45:45.030Z,22.6
2022-11-19T07:51:27.476Z,22.3
2022-11-19T07:56:50.048Z,23.6
2022-11-19T08:02:19.436Z,26.6
2022-11-19T08:08:01.899Z,24.1
2022-11-19T08:13:40.176Z,24.2
2022-11-19T08:19:22.335Z,24.2
2022-11-19T08:25:00.624Z,24.1
2022-11-19T08:30:41.346Z,23.8
2022-11-19T08:36:20.015Z,23.4
2022-11-19T08:41:58.561Z,23.1
2022-11-19T08:47:36.637Z,22.8
2022-11-19T08:53:14.427Z,22.6
2022-11-19T08:58:52.353Z,22.3
2022-11-19T09:04:34.385Z,22
2022-11-19T09:10:18.343Z,22.5
2022-11-19T09:15:41.399Z,25.7
2022-11-19T09:21:23.656Z,24.4
2022-11-19T09:27:06.758Z,24.1
2022-11-19T09:32:44.253Z,24.3
2022-11-19T09:38:22.482Z,24.1
2022-11-19T09:44:05.863Z,23.9
2022-11-19T09:49:43.953Z,23.7
2022-11-19T09:55:21.942Z,23.4
2022-11-19T10:00:59.986Z,23.1
2022-11-19T10:06:22.602Z,22.9
2022-11-19T10:12:06.557Z,22.6
2022-11-19T10:17:34.761Z,22.3
2022-11-19T10:23:14.251Z,22.1
2022-11-19T10:28:51.738Z,21.9
2022-11-19T10:34:29.702Z,21.6
2022-11-19T10:40:13.366Z,21.4
2022-11-19T10:45:54.422Z,21.2
2022-11-19T10:51:35.755Z,21
2022-11-19T10:57:02.986Z,20.8
2022-11-19T11:02:28.094Z,20.7
2022-11-19T11:08:07.636Z,20.5
2022-11-19T11:13:45.859Z,20.4
2022-11-19T11:19:25.093Z,20.2
2022-11-19T11:25:07.175Z,20.1
2022-11-19T11:30:45.612Z,19.9
2022-11-19T11:36:17.769Z,19.8
2022-11-19T11:42:13.148Z,19.8
2022-11-19T11:47:38.440Z,19.6
2022-11-19T11:53:07.323Z,19.6
2022-11-19T11:58:45.310Z,19.5
2022-11-19T12:04:05.985Z,19.4
2022-11-19T12:09:34.191Z,19.3
2022-11-19T12:15:17.840Z,19.3
2022-11-19T12:20:55.388Z,19.2
2022-11-19T12:26:18.382Z,19.1
2022-11-19T12:31:55.325Z,19.1
2022-11-19T12:37:33.273Z,19
2022-11-19T12:43:12.757Z,18.9
2022-11-19T12:48:52.254Z,18.9
2022-11-19T12:54:35.387Z,18.8
2022-11-19T13:00:13.723Z,18.8
2022-11-19T13:16:25.315Z,18.6
2022-11-19T13:22:02.924Z,18.6
2022-11-19T13:27:40.778Z,18.6
2022-11-19T13:33:18.936Z,18.5
2022-11-19T13:39:02.342Z,18.4
2022-11-19T13:45:06.042Z,18.4
2022-11-19T13:50:45.917Z,18.4
2022-11-19T13:56:27.554Z,18.4
2022-11-19T14:02:05.039Z,18.3
2022-11-19T14:07:47.566Z,18.3
2022-11-19T14:13:10.086Z,18.3
2022-11-19T14:18:17.157Z,18.3
2022-11-19T14:23:44.237Z,18.3
2022-11-19T14:29:22.894Z,18.2
2022-11-19T14:35:01.305Z,18.2
2022-11-19T14:40:43.615Z,18.2
2022-11-19T14:46:21.766Z,18.1
2022-11-19T14:51:45.042Z,18.1
2022-11-19T14:57:23.651Z,18.1
2022-11-19T15:03:02.279Z,18.1
2022-11-19T15:08:46.454Z,18.1
2022-11-19T15:14:23.543Z,18.1
2022-11-19T15:19:45.645Z,18.1
2022-11-19T15:25:11.058Z,18.1
2022-11-19T15:30:21.065Z,18
2022-11-19T15:36:20.821Z,18
2022-11-19T15:41:43.309Z,18
2022-11-19T15:47:21.529Z,18
2022-11-19T15:52:34.818Z,18
2022-11-19T15:57:56.731Z,18
2022-11-19T16:03:05.107Z,17.9
2022-11-19T16:08:43.194Z,17.9
2022-11-19T16:13:51.937Z,17.9
2022-11-19T16:19:20.506Z,17.9
2022-11-19T16:25:03.031Z,17.9
2022-11-19T16:30:41.514Z,17.9
2022-11-19T16:36:26.146Z,17.9
2022-11-19T16:42:04.072Z,17.9
2022-11-19T16:47:27.416Z,17.9
2022-11-19T16:53:04.883Z,17.9
2022-11-19T16:58:31.118Z,17.9
2022-11-19T17:04:15.069Z,17.9
2022-11-19T17:09:52.889Z,17.9
2022-11-19T17:15:15.521Z,17.9
2022-11-19T17:20:59.515Z,17.9
2022-11-19T17:26:26.318Z,17.9
2022-11-19T17:32:04.095Z,17.9
2022-11-19T17:37:30.815Z,17.9
2022-11-19T17:43:09.001Z,17.9
2022-11-19T17:48:28.386Z,17.9
2022-11-19T17:53:50.944Z,17.8
2022-11-19T17:59:28.873Z,17.9
2022-11-19T18:05:09.121Z,17.8
2022-11-19T18:10:32.228Z,17.8
2022-11-19T18:15:25.313Z,17.8
2022-11-19T18:21:04.891Z,17.9
2022-11-19T18:26:43.751Z,17.8
2022-11-19T18:32:11.193Z,17.8
2022-11-19T18:37:35.286Z,17.8
2022-11-19T18:43:15.851Z,17.8
2022-11-19T18:49:00.180Z,17.8
2022-11-19T18:54:41.311Z,17.8
2022-11-19T19:00:27.215Z,17.8
2022-11-19T19:05:40.762Z,17.8
2022-11-19T19:10:51.740Z,17.8
2022-11-19T19:16:30.627Z,17.8
2022-11-19T19:21:58.763Z,17.8
2022-11-19T19:27:45.837Z,17.8
2022-11-19T19:33:14.220Z,17.8
2022-11-19T19:38:54.413Z,17.8
2022-11-19T19:44:39.141Z,17.8
2022-11-19T19:50:19.071Z,17.8
2022-11-19T19:55:58.682Z,17.8
2022-11-19T20:01:23.973Z,17.8
2022-11-19T20:07:03.375Z,17.8
2022-11-19T20:12:46.810Z,17.8
2022-11-19T20:18:16.043Z,17.8
2022-11-19T20:23:54.271Z,18.8
2022-11-19T20:29:35.588Z,22.2
2022-11-19T20:35:14.892Z,25.1
2022-11-19T20:40:37.139Z,25.4
2022-11-19T20:46:22.117Z,23
2022-11-19T20:52:04.031Z,23.3
2022-11-19T20:57:45.935Z,23.4
2022-11-19T21:03:28.830Z,23.3
2022-11-19T21:08:51.481Z,23.1
2022-11-19T21:14:34.680Z,22.6
2022-11-19T21:20:01.062Z,24
2022-11-19T21:25:43.729Z,26.4
2022-11-19T21:31:21.682Z,23.9
2022-11-19T21:37:00.105Z,23.6
2022-11-19T21:42:40.906Z,25.1
2022-11-19T21:48:19.170Z,27.4
2022-11-19T21:53:57.200Z,25.3
2022-11-19T21:59:40.649Z,26.3
2022-11-19T22:05:18.292Z,28.1
2022-11-19T22:11:01.874Z,24.8
2022-11-19T22:16:08.960Z,24.6
2022-11-19T22:21:47.180Z,25.3
2022-11-19T22:27:25.217Z,27.7
2022-11-19T22:33:09.297Z,25.1
2022-11-19T22:38:53.611Z,24.7
2022-11-19T22:43:44.605Z,24.9
2022-11-19T22:49:07.136Z,25.8
2022-11-19T22:54:45.238Z,28.2
2022-11-19T22:59:37.473Z,25.1
2022-11-19T23:05:15.997Z,24.8
2022-11-19T23:10:43.424Z,24.9
2022-11-19T23:16:21.793Z,25.1
2022-11-19T23:22:02.374Z,27.7
2022-11-19T23:27:40.181Z,25.4
2022-11-19T23:33:18.276Z,24.9
2022-11-19T23:39:02.263Z,25.1
2022-11-19T23:44:30.363Z,25
2022-11-19T23:50:08.330Z,26.3
2022-11-19T23:55:46.285Z,26.6
